createdAt,value
2022-08-03T00:02:52.695Z,16.67
2022-08-03T00:07:59.203Z,16.63
2022-08-03T00:13:06.093Z,16.59
2022-08-03T00:18:12.118Z,16.54
2022-08-03T00:23:17.996Z,16.51
2022-08-03T00:28:24.097Z,16.43
2022-08-03T00:33:58.333Z,16.43
2022-08-03T00:39:00.330Z,16.47
2022-08-03T00:44:06.756Z,16.44
2022-08-03T00:49:13.069Z,16.37
2022-08-03T00:54:20.194Z,16.26
2022-08-03T00:59:26.116Z,16.16
2022-08-03T01:04:32.046Z,16.11
2022-08-03T01:09:46.600Z,16.05
2022-08-03T01:14:58.594Z,16.00
2022-08-03T01:20:08.057Z,16.00
2022-08-03T01:25:24.795Z,15.98
2022-08-03T01:30:33.714Z,15.88
2022-08-03T01:35:47.118Z,15.79
2022-08-03T01:40:56.269Z,15.74
2022-08-03T01:46:03.215Z,15.74
2022-08-03T01:51:10.985Z,15.75
2022-08-03T01:56:19.666Z,15.77
2022-08-03T02:01:27.390Z,15.78
2022-08-03T02:07:01.711Z,15.81
2022-08-03T02:12:11.696Z,15.76
2022-08-03T02:17:39.335Z,15.73
2022-08-03T02:22:46.572Z,15.69
2022-08-03T02:27:55.578Z,15.63
2022-08-03T02:33:03.126Z,15.58
2022-08-03T02:38:11.728Z,15.53
2022-08-03T02:43:22.018Z,15.48
2022-08-03T02:48:32.771Z,15.46
2022-08-03T02:53:39.425Z,15.43
2022-08-03T02:58:47.656Z,15.42
2022-08-03T03:03:54.937Z,15.43
2022-08-03T03:09:02.716Z,15.47
2022-08-03T03:14:10.206Z,15.51
2022-08-03T03:19:17.744Z,15.55
2022-08-03T03:24:24.178Z,15.65
2022-08-03T03:29:30.500Z,15.77
2022-08-03T03:34:45.943Z,15.91
2022-08-03T03:39:53.068Z,16.06
2022-08-03T03:44:59.475Z,16.27
2022-08-03T03:50:06.945Z,16.52
2022-08-03T03:55:18.028Z,16.74
2022-08-03T04:00:25.011Z,16.94
2022-08-03T04:05:50.054Z,17.19
2022-08-03T04:11:07.470Z,17.48
2022-08-03T04:16:15.820Z,17.67
2022-08-03T04:21:24.206Z,17.86
2022-08-03T04:26:34.427Z,18.04
2022-08-03T04:31:42.103Z,18.33
2022-08-03T04:36:52.820Z,18.73
2022-08-03T04:42:08.407Z,19.25
2022-08-03T04:47:15.810Z,19.89
2022-08-03T04:52:22.053Z,20.66
2022-08-03T04:57:28.208Z,21.70
2022-08-03T05:02:35.074Z,23.22
2022-08-03T05:07:41.010Z,25.03
2022-08-03T05:12:51.670Z,27.01
2022-08-03T05:17:57.639Z,27.28
2022-08-03T05:23:04.113Z,26.56
2022-08-03T05:28:09.878Z,25.64
2022-08-03T05:33:16.133Z,25.40
2022-08-03T05:38:28.029Z,25.28
2022-08-03T05:43:39.575Z,24.86
2022-08-03T05:48:45.566Z,25.00
2022-08-03T05:53:52.321Z,24.96
2022-08-03T05:59:07.243Z,24.39
2022-08-03T06:04:22.727Z,23.80
2022-08-03T06:10:34.002Z,23.45
2022-08-03T06:14:56.040Z,23.36
2022-08-03T06:20:02.483Z,24.18
2022-08-03T06:25:12.794Z,26.04
2022-08-03T06:30:21.238Z,26.26
2022-08-03T06:35:28.152Z,26.14
2022-08-03T06:40:40.047Z,25.69
2022-08-03T06:45:47.691Z,25.20
2022-08-03T06:50:53.598Z,24.74
2022-08-03T06:55:59.635Z,24.35
2022-08-03T07:01:05.723Z,24.05
2022-08-03T07:06:11.816Z,23.87
2022-08-03T07:11:17.754Z,23.79
2022-08-03T07:16:23.717Z,23.82
2022-08-03T07:21:29.659Z,24.01
2022-08-03T07:26:35.499Z,24.70
2022-08-03T07:31:42.236Z,26.66
2022-08-03T07:36:48.060Z,28.11
2022-08-03T07:41:53.975Z,27.57
2022-08-03T07:47:03.227Z,26.94
2022-08-03T07:52:28.598Z,26.72
2022-08-03T07:57:35.653Z,27.77
2022-08-03T08:02:41.888Z,29.57
2022-08-03T08:07:51.072Z,30.27
2022-08-03T08:12:57.931Z,30.91
2022-08-03T08:18:04.116Z,32.09
2022-08-03T08:23:37.644Z,35.05
2022-08-03T08:28:36.368Z,37.80
2022-08-03T08:34:03.087Z,39.25
2022-08-03T08:39:08.293Z,40.34
2022-08-03T08:44:14.469Z,41.50
2022-08-03T08:49:28.080Z,41.48
2022-08-03T08:54:35.140Z,42.38
2022-08-03T08:59:47.754Z,42.91
2022-08-03T09:04:55.634Z,43.28
2022-08-03T09:10:11.789Z,43.24
2022-08-03T09:15:22.461Z,43.11
2022-08-03T09:20:30.821Z,42.56
2022-08-03T09:25:39.057Z,42.69
2022-08-03T09:30:58.192Z,42.65
2022-08-03T09:36:04.590Z,42.62
2022-08-03T09:41:19.913Z,42.55
2022-08-03T09:46:25.826Z,42.51
2022-08-03T09:51:33.283Z,42.76
2022-08-03T09:56:58.772Z,42.78
2022-08-03T10:02:04.957Z,42.77
2022-08-03T10:07:12.194Z,42.54
2022-08-03T10:12:18.263Z,41.75
2022-08-03T10:17:24.603Z,40.29
2022-08-03T10:22:34.047Z,40.13
2022-08-03T10:27:41.514Z,40.28
2022-08-03T10:32:52.558Z,40.36
2022-08-03T10:38:02.075Z,40.54
2022-08-03T10:43:13.279Z,40.61
2022-08-03T10:48:20.794Z,40.54
2022-08-03T10:53:40.451Z,40.07
2022-08-03T10:58:57.393Z,39.17
2022-08-03T11:04:21.633Z,37.60
2022-08-03T11:09:40.782Z,36.23
2022-08-03T11:14:50.151Z,35.86
2022-08-03T11:19:56.822Z,35.27
2022-08-03T11:25:05.262Z,34.52
2022-08-03T11:30:27.500Z,35.11
2022-08-03T11:35:43.827Z,35.87
2022-08-03T11:40:51.450Z,36.63
2022-08-03T11:46:02.339Z,36.82
2022-08-03T11:51:20.259Z,36.04
2022-08-03T11:56:26.732Z,35.61
2022-08-03T12:01:32.980Z,35.15
2022-08-03T12:06:55.451Z,34.44
2022-08-03T12:12:01.639Z,34.03
2022-08-03T12:17:07.495Z,34.03
2022-08-03T12:22:16.829Z,34.05
2022-08-03T12:27:29.757Z,33.77
2022-08-03T12:32:35.876Z,33.59
2022-08-03T12:37:48.323Z,33.24
2022-08-03T12:42:54.505Z,33.19
2022-08-03T12:48:02.325Z,33.51
2022-08-03T12:53:10.606Z,33.56
2022-08-03T12:58:33.799Z,33.75
2022-08-03T13:03:49.588Z,33.93
2022-08-03T13:09:07.801Z,33.97
2022-08-03T13:14:19.787Z,34.15
2022-08-03T13:19:26.266Z,34.22
2022-08-03T13:24:33.454Z,34.37
2022-08-03T13:29:39.935Z,34.43
2022-08-03T13:34:45.971Z,34.24
2022-08-03T13:39:58.025Z,33.99
2022-08-03T13:45:08.865Z,33.85
2022-08-03T13:50:15.347Z,33.65
2022-08-03T13:55:21.308Z,32.96
2022-08-03T14:00:29.483Z,32.73
2022-08-03T14:05:37.141Z,32.96
2022-08-03T14:10:44.921Z,33.11
2022-08-03T14:15:51.980Z,32.92
2022-08-03T14:21:03.411Z,32.94
2022-08-03T14:26:12.077Z,32.82
2022-08-03T14:32:09.519Z,32.83
2022-08-03T14:36:44.309Z,32.64
2022-08-03T14:41:50.170Z,32.50
2022-08-03T14:46:56.034Z,32.30
2022-08-03T14:52:02.689Z,32.08
2022-08-03T14:57:08.555Z,31.87
2022-08-03T15:02:23.339Z,31.75
2022-08-03T15:07:30.033Z,31.69
2022-08-03T15:12:36.174Z,31.59
2022-08-03T15:17:42.862Z,31.38
2022-08-03T15:22:48.851Z,31.19
2022-08-03T15:28:03.733Z,30.93
2022-08-03T15:33:10.934Z,30.54
2022-08-03T15:38:17.673Z,30.34
2022-08-03T15:43:23.833Z,30.24
2022-08-03T15:48:29.867Z,30.05
2022-08-03T15:53:36.528Z,29.76
2022-08-03T15:59:09.241Z,29.51
2022-08-03T16:04:08.408Z,29.25
2022-08-03T16:09:23.102Z,28.98
2022-08-03T16:14:51.277Z,28.74
2022-08-03T16:19:58.495Z,28.58
2022-08-03T16:25:04.830Z,28.44
2022-08-03T16:30:20.064Z,28.25
2022-08-03T16:35:26.090Z,28.06
2022-08-03T16:40:32.783Z,27.88
2022-08-03T16:45:38.921Z,27.74
2022-08-03T16:50:45.251Z,27.66
2022-08-03T16:55:54.334Z,27.56
2022-08-03T17:01:00.408Z,27.38
2022-08-03T17:06:17.515Z,27.27
2022-08-03T17:11:28.075Z,27.16
2022-08-03T17:16:36.057Z,27.08
2022-08-03T17:21:51.539Z,26.94
2022-08-03T17:27:00.680Z,26.82
2022-08-03T17:32:10.656Z,26.69
2022-08-03T17:37:49.840Z,26.54
2022-08-03T17:42:50.532Z,26.32
2022-08-03T17:47:57.160Z,26.05
2022-08-03T17:53:15.681Z,25.73
2022-08-03T17:58:43.899Z,25.39
2022-08-03T18:03:58.657Z,25.06
2022-08-03T18:10:05.824Z,24.75
2022-08-03T18:14:43.286Z,24.41
2022-08-03T18:20:11.684Z,24.05
2022-08-03T18:25:38.295Z,23.70
2022-08-03T18:30:53.451Z,23.48
2022-08-03T18:36:04.049Z,23.29
2022-08-03T18:41:15.146Z,23.16
2022-08-03T18:46:34.265Z,22.97
2022-08-03T18:51:46.994Z,22.77
2022-08-03T18:56:55.953Z,22.53
2022-08-03T19:02:09.130Z,22.31
2022-08-03T19:07:24.729Z,22.14
2022-08-03T19:12:39.971Z,21.99
2022-08-03T19:17:53.195Z,21.84
2022-08-03T19:23:00.988Z,21.63
2022-08-03T19:28:08.874Z,21.48
2022-08-03T19:33:15.594Z,21.36
2022-08-03T19:38:29.341Z,21.19
2022-08-03T19:43:52.809Z,21.03
2022-08-03T19:49:04.625Z,20.94
2022-08-03T19:54:29.339Z,20.83
2022-08-03T19:59:50.392Z,20.70
2022-08-03T20:04:57.797Z,20.57
2022-08-03T20:10:09.233Z,20.49
2022-08-03T20:15:18.166Z,20.41
2022-08-03T20:20:32.223Z,20.28
2022-08-03T20:25:57.198Z,20.21
2022-08-03T20:31:05.422Z,20.16
2022-08-03T20:36:13.047Z,20.06
2022-08-03T20:41:21.890Z,19.96
2022-08-03T20:46:32.716Z,19.86
2022-08-03T20:51:49.646Z,19.80
2022-08-03T20:57:00.354Z,19.73
2022-08-03T21:02:06.608Z,19.64
2022-08-03T21:07:19.206Z,19.59
2022-08-03T21:12:35.683Z,19.54
2022-08-03T21:17:47.477Z,19.51
2022-08-03T21:22:56.202Z,19.41
2022-08-03T21:28:05.911Z,19.37
2022-08-03T21:33:12.177Z,19.39
2022-08-03T21:38:29.924Z,19.45
2022-08-03T21:43:36.552Z,19.42
2022-08-03T21:48:44.822Z,19.46
2022-08-03T21:54:00.379Z,19.43
2022-08-03T21:59:17.367Z,19.36
2022-08-03T22:04:50.831Z,19.30
2022-08-03T22:09:52.239Z,19.23
2022-08-03T22:15:01.956Z,19.21
2022-08-03T22:20:11.102Z,19.13
2022-08-03T22:25:18.196Z,19.01
2022-08-03T22:30:24.139Z,18.90
2022-08-03T22:35:31.565Z,18.87
2022-08-03T22:40:39.102Z,18.95
2022-08-03T22:46:09.831Z,18.98
2022-08-03T22:51:15.366Z,19.05
2022-08-03T22:56:22.126Z,19.11
2022-08-03T23:01:32.611Z,19.15
2022-08-03T23:06:41.357Z,19.18
2022-08-03T23:11:48.382Z,19.11
2022-08-03T23:16:56.006Z,19.07
2022-08-03T23:22:04.084Z,19.01
2022-08-03T23:27:11.793Z,18.93
2022-08-03T23:32:21.423Z,18.79
2022-08-03T23:37:28.246Z,18.64
2022-08-03T23:42:35.034Z,18.53
2022-08-03T23:47:46.968Z,18.35
2022-08-03T23:53:08.300Z,18.24
2022-08-03T23:58:25.029Z,18.14
